createdAt,value
2019-04-04T00:00:47.101Z,99.90
2019-04-04T00:05:49.369Z,99.90
2019-04-04T00:10:51.256Z,99.90
2019-04-04T00:15:52.740Z,99.90
2019-04-04T00:20:54.278Z,99.90
2019-04-04T00:25:55.891Z,99.90
2019-04-04T00:30:57.632Z,99.90
2019-04-04T00:36:00.715Z,99.90
2019-04-04T00:41:02.868Z,99.90
2019-04-04T00:46:04.317Z,99.90
2019-04-04T00:51:07.872Z,99.90
2019-04-04T00:56:09.623Z,99.90
2019-04-04T01:01:11.183Z,99.90
2019-04-04T01:06:12.813Z,99.90
2019-04-04T01:11:14.263Z,99.90
2019-04-04T01:16:15.749Z,99.90
2019-04-04T01:21:17.216Z,99.90
2019-04-04T01:26:18.762Z,99.90
2019-04-04T01:31:20.214Z,99.90
2019-04-04T01:36:23.158Z,99.90
2019-04-04T01:41:25.344Z,99.90
2019-04-04T01:46:27.378Z,99.90
2019-04-04T01:51:29.251Z,99.90
2019-04-04T01:56:31.125Z,99.90
2019-04-04T02:01:32.587Z,99.90
2019-04-04T02:06:34.467Z,99.90
2019-04-04T02:11:37.603Z,99.90
2019-04-04T02:16:39.806Z,99.90
2019-04-04T02:21:41.379Z,99.90
2019-04-04T02:26:42.916Z,99.90
2019-04-04T02:31:52.969Z,99.90
2019-04-04T02:36:52.665Z,99.90
2019-04-04T02:41:54.117Z,99.90
2019-04-04T02:46:55.565Z,99.90
2019-04-04T02:51:57.557Z,99.90
2019-04-04T02:56:59.157Z,99.90
2019-04-04T03:02:04.811Z,99.90
2019-04-04T03:07:04.273Z,99.90
2019-04-04T03:12:06.127Z,99.90
2019-04-04T03:17:07.597Z,99.90
2019-04-04T03:22:09.084Z,99.90
2019-04-04T03:27:10.840Z,99.90
2019-04-04T03:32:14.624Z,99.90
2019-04-04T03:37:15.976Z,99.90
2019-04-04T03:42:17.500Z,99.90
2019-04-04T03:47:18.975Z,99.90
2019-04-04T03:52:20.467Z,99.90
2019-04-04T03:57:22.001Z,99.90
2019-04-04T04:02:24.392Z,99.90
2019-04-04T04:07:25.940Z,99.90
2019-04-04T04:12:27.392Z,99.90
2019-04-04T04:17:28.904Z,99.90
2019-04-04T04:22:30.379Z,99.90
2019-04-04T04:27:31.885Z,99.90
2019-04-04T04:32:37.080Z,99.90
2019-04-04T04:37:36.829Z,99.90
2019-04-04T04:42:38.284Z,99.90
2019-04-04T04:47:39.841Z,99.90
2019-04-04T04:52:41.802Z,99.90
2019-04-04T04:57:43.404Z,99.90
2019-04-04T05:02:45.143Z,99.90
2019-04-04T05:07:46.626Z,99.90
2019-04-04T05:12:48.493Z,99.90
2019-04-04T05:17:49.996Z,99.90
2019-04-04T05:22:51.470Z,99.90
2019-04-04T05:27:53.193Z,99.90
2019-04-04T05:32:56.525Z,99.90
2019-04-04T05:37:58.103Z,99.90
2019-04-04T05:42:59.581Z,99.90
2019-04-04T05:48:01.049Z,99.90
2019-04-04T05:53:04.332Z,99.90
2019-04-04T05:58:06.289Z,99.90
2019-04-04T06:03:07.757Z,99.90
2019-04-04T06:08:09.211Z,99.90
2019-04-04T06:13:10.777Z,99.90
2019-04-04T06:18:12.236Z,99.90
2019-04-04T06:23:14.106Z,99.90
2019-04-04T06:28:15.578Z,99.90
2019-04-04T06:33:17.371Z,99.90
2019-04-04T06:38:18.877Z,99.90
2019-04-04T06:43:20.715Z,99.90
2019-04-04T06:48:22.195Z,99.90
2019-04-04T06:53:23.739Z,99.90
2019-04-04T06:58:25.360Z,99.90
2019-04-04T07:03:28.043Z,99.90
2019-04-04T07:08:29.795Z,99.90
2019-04-04T07:13:41.741Z,99.90
2019-04-04T07:18:34.818Z,99.90
2019-04-04T07:23:36.373Z,99.90
2019-04-04T07:28:37.866Z,99.90
2019-04-04T07:33:42.658Z,99.90
2019-04-04T07:38:42.686Z,99.90
2019-04-04T07:43:44.152Z,99.90
2019-04-04T07:48:45.675Z,99.90
2019-04-04T07:53:47.438Z,99.90
2019-04-04T07:58:49.268Z,99.90
2019-04-04T08:03:50.750Z,99.90
2019-04-04T08:08:52.504Z,99.90
2019-04-04T08:13:54.275Z,99.90
2019-04-04T08:18:55.750Z,99.90
2019-04-04T08:23:57.146Z,99.90
2019-04-04T08:28:58.934Z,99.90
2019-04-04T08:34:00.775Z,99.90
2019-04-04T08:39:06.656Z,99.90
2019-04-04T08:44:08.120Z,99.90
2019-04-04T08:49:09.579Z,99.90
2019-04-04T08:54:11.056Z,99.90
2019-04-04T08:59:12.912Z,99.90
2019-04-04T09:04:14.378Z,99.90
2019-04-04T09:09:16.256Z,99.90
2019-04-04T09:14:18.068Z,99.90
2019-04-04T09:19:19.904Z,99.90
2019-04-04T09:24:21.391Z,99.90
2019-04-04T09:29:22.850Z,99.90
2019-04-04T09:34:24.723Z,99.90
2019-04-04T09:39:26.238Z,99.90
2019-04-04T09:44:27.796Z,99.90
2019-04-04T09:49:29.255Z,99.90
2019-04-04T09:54:31.113Z,99.90
2019-04-04T09:59:32.693Z,99.90
2019-04-04T10:04:34.550Z,99.80
2019-04-04T10:09:36.422Z,99.70
2019-04-04T10:14:38.202Z,98.90
2019-04-04T10:19:39.958Z,99.00
2019-04-04T10:24:41.700Z,98.40
2019-04-04T10:29:43.517Z,97.70
2019-04-04T10:34:44.995Z,97.20
2019-04-04T10:39:46.887Z,97.10
2019-04-04T10:44:48.418Z,96.30
2019-04-04T10:49:49.931Z,95.80
2019-04-04T10:54:51.773Z,95.10
2019-04-04T10:59:54.695Z,94.90
2019-04-04T11:04:56.502Z,94.90
2019-04-04T11:09:58.422Z,94.40
2019-04-04T11:14:59.883Z,94.20
2019-04-04T11:20:01.983Z,94.30
2019-04-04T11:25:04.639Z,93.00
2019-04-04T11:30:08.078Z,92.80
2019-04-04T11:35:09.755Z,92.20
2019-04-04T11:40:11.715Z,92.40
2019-04-04T11:45:13.741Z,92.10
2019-04-04T11:50:15.786Z,91.70
2019-04-04T11:55:17.763Z,91.20
2019-04-04T12:00:21.316Z,90.90
2019-04-04T12:05:22.814Z,91.30
2019-04-04T12:10:24.740Z,90.10
2019-04-04T12:15:26.226Z,90.00
2019-04-04T12:20:27.701Z,88.20
2019-04-04T12:25:29.187Z,89.30
2019-04-04T12:30:31.003Z,86.40
2019-04-04T12:35:32.477Z,86.20
2019-04-04T12:40:33.934Z,86.60
2019-04-04T12:45:35.507Z,87.40
2019-04-04T12:50:36.966Z,85.50
2019-04-04T12:55:38.431Z,85.20
2019-04-04T13:00:40.306Z,87.90
2019-04-04T13:05:42.197Z,88.30
2019-04-04T13:10:43.662Z,87.80
2019-04-04T13:15:45.130Z,85.40
2019-04-04T13:20:46.591Z,85.00
2019-04-04T13:25:48.358Z,83.70
2019-04-04T13:30:50.172Z,83.10
2019-04-04T13:35:52.004Z,84.00
2019-04-04T13:40:53.889Z,81.90
2019-04-04T13:45:55.567Z,81.70
2019-04-04T13:50:57.046Z,80.90
2019-04-04T13:55:59.284Z,80.10
2019-04-04T14:01:00.897Z,80.60
2019-04-04T14:06:02.375Z,80.80
2019-04-04T14:11:04.253Z,79.70
2019-04-04T14:16:05.810Z,79.60
2019-04-04T14:21:07.277Z,79.30
2019-04-04T14:26:08.855Z,78.90
2019-04-04T14:31:10.360Z,78.30
2019-04-04T14:36:11.876Z,78.10
2019-04-04T14:41:13.756Z,78.00
2019-04-04T14:46:15.251Z,78.80
2019-04-04T14:51:16.802Z,78.30
2019-04-04T14:56:18.568Z,79.40
2019-04-04T15:01:20.107Z,78.60
2019-04-04T15:06:21.673Z,76.70
2019-04-04T15:11:24.565Z,77.20
2019-04-04T15:16:26.759Z,77.30
2019-04-04T15:21:28.739Z,77.60
2019-04-04T15:26:30.310Z,77.80
2019-04-04T15:31:32.334Z,78.70
2019-04-04T15:36:34.168Z,78.70
2019-04-04T15:41:37.540Z,77.10
2019-04-04T15:46:39.258Z,78.60
2019-04-04T15:51:40.732Z,77.40
2019-04-04T15:56:42.588Z,78.00
2019-04-04T16:01:44.468Z,78.00
2019-04-04T16:06:46.344Z,79.50
2019-04-04T16:11:49.863Z,80.80
2019-04-04T16:16:51.633Z,79.50
2019-04-04T16:21:53.507Z,81.40
2019-04-04T16:26:54.977Z,79.90
2019-04-04T16:31:56.456Z,80.20
2019-04-04T16:36:58.425Z,81.70
2019-04-04T16:42:02.416Z,82.00
2019-04-04T16:47:03.586Z,82.50
2019-04-04T16:52:07.235Z,82.70
2019-04-04T16:57:08.540Z,83.20
2019-04-04T17:02:10.460Z,83.70
2019-04-04T17:07:11.929Z,84.40
2019-04-04T17:12:15.140Z,84.60
2019-04-04T17:17:17.057Z,84.70
2019-04-04T17:22:18.836Z,84.90
2019-04-04T17:27:20.371Z,85.30
2019-04-04T17:32:21.846Z,85.10
2019-04-04T17:37:23.938Z,85.10
2019-04-04T17:42:30.202Z,85.50
2019-04-04T17:47:29.497Z,86.50
2019-04-04T17:52:31.198Z,86.10
2019-04-04T17:57:32.780Z,88.20
2019-04-04T18:02:34.319Z,88.60
2019-04-04T18:07:36.302Z,89.30
2019-04-04T18:12:40.568Z,90.10
2019-04-04T18:17:41.463Z,90.40
2019-04-04T18:22:43.071Z,91.30
2019-04-04T18:27:44.577Z,91.50
2019-04-04T18:32:46.072Z,91.80
2019-04-04T18:37:48.242Z,92.30
2019-04-04T18:42:53.437Z,92.50
2019-04-04T18:47:53.358Z,92.80
2019-04-04T18:52:54.836Z,92.50
2019-04-04T18:57:56.689Z,92.50
2019-04-04T19:02:58.302Z,92.80
2019-04-04T19:07:59.870Z,92.70
2019-04-04T19:13:05.741Z,93.20
2019-04-04T19:18:07.377Z,93.60
2019-04-04T19:23:09.252Z,94.10
2019-04-04T19:28:11.069Z,94.20
2019-04-04T19:33:12.623Z,94.60
2019-04-04T19:38:14.215Z,94.60
2019-04-04T19:43:18.147Z,94.80
2019-04-04T19:48:19.239Z,95.00
2019-04-04T19:53:20.731Z,95.20
2019-04-04T19:58:22.465Z,95.30
2019-04-04T20:03:23.987Z,95.90
2019-04-04T20:08:25.942Z,95.40
2019-04-04T20:13:31.284Z,95.90
2019-04-04T20:18:31.223Z,95.60
2019-04-04T20:23:33.806Z,96.10
2019-04-04T20:28:35.332Z,95.90
2019-04-04T20:33:36.803Z,96.10
2019-04-04T20:38:38.439Z,96.50
2019-04-04T20:43:43.447Z,96.20
2019-04-04T20:48:43.430Z,96.50
2019-04-04T20:53:44.905Z,96.10
2019-04-04T20:58:46.430Z,96.40
2019-04-04T21:03:47.890Z,96.70
2019-04-04T21:08:49.343Z,96.70
2019-04-04T21:13:56.476Z,96.30
2019-04-04T21:18:54.237Z,96.60
2019-04-04T21:23:55.744Z,96.40
2019-04-04T21:28:57.217Z,96.60
2019-04-04T21:33:58.915Z,97.00
2019-04-04T21:39:00.457Z,97.30
2019-04-04T21:44:08.701Z,97.70
2019-04-04T21:49:05.788Z,98.10
2019-04-04T21:54:07.399Z,98.20
2019-04-04T21:59:09.015Z,98.50
2019-04-04T22:04:10.817Z,98.60
2019-04-04T22:09:16.942Z,99.10
2019-04-04T22:14:21.865Z,99.30
2019-04-04T22:19:22.278Z,99.60
2019-04-04T22:24:23.749Z,99.90
2019-04-04T22:29:25.535Z,99.90
2019-04-04T22:34:27.395Z,99.90
2019-04-04T22:39:28.876Z,99.90
2019-04-04T22:44:34.993Z,99.90
2019-04-04T22:49:33.885Z,99.90
2019-04-04T22:54:35.591Z,99.90
2019-04-04T22:59:37.174Z,99.90
2019-04-04T23:04:38.968Z,99.90
2019-04-04T23:09:40.840Z,99.90
2019-04-04T23:14:48.405Z,99.90
2019-04-04T23:19:46.639Z,99.90
2019-04-04T23:24:48.102Z,99.90
2019-04-04T23:29:50.037Z,99.90
2019-04-04T23:34:51.542Z,99.90
2019-04-04T23:39:53.022Z,99.90
2019-04-04T23:45:00.722Z,99.90
2019-04-04T23:49:58.475Z,99.90
2019-04-04T23:54:59.995Z,99.90
